Time;durP1;ratioP1;P1;durP2;ratioP2;P2;SDS_P1;SDS_P2;PMS_P1;PMS_P2;Temp;Humidity;BMP_temperature;BMP_pressure;BME280_temperature;BME280_humidity;BME280_pressure;Samples;Min_cycle;Max_cycle;Signal;HPM_P1;HPM_P2
2022/09/25 00:03:40;;;;;;;29.13;13.48;;;;;;;;;;10552957;28;20050;-76
2022/09/25 00:08:45;;;;;;;26.67;11.77;;;;;;;;;;10551372;28;20532;-74
2022/09/25 00:13:54;;;;;;;21.95;10.75;;;;;;;;;;10551374;28;20095;-75
2022/09/25 00:24:26;;;;;;;26.73;12.00;;;;;;;;;;10573344;28;20052;-75
2022/09/25 00:29:33;;;;;;;27.30;12.85;;;;;;;;;;10579745;28;20050;-75
2022/09/25 00:34:39;;;;;;;28.02;13.05;;;;;;;;;;10578033;28;20475;-75
2022/09/25 00:39:44;;;;;;;23.08;10.90;;;;;;;;;;10567710;28;20028;-76
2022/09/25 00:44:57;;;;;;;22.13;11.45;;;;;;;;;;10552837;28;20044;-73
2022/09/25 00:50:02;;;;;;;21.13;10.77;;;;;;;;;;10568877;28;20590;-75
2022/09/25 00:55:11;;;;;;;22.73;10.80;;;;;;;;;;10527859;28;20422;-74
2022/09/25 01:00:19;;;;;;;24.05;10.68;;;;;;;;;;10570843;28;20055;-74
2022/09/25 01:05:26;;;;;;;25.08;11.35;;;;;;;;;;10554113;28;20484;-75
2022/09/25 01:10:37;;;;;;;22.15;10.50;;;;;;;;;;10551524;28;20032;-75
2022/09/25 01:15:53;;;;;;;21.17;9.52;;;;;;;;;;10566105;28;20170;-75
2022/09/25 01:21:20;;;;;;;20.08;8.88;;;;;;;;;;10570281;27;20044;-75
2022/09/25 01:26:46;;;;;;;13.55;6.82;;;;;;;;;;10542452;28;20143;-75
2022/09/25 01:32:06;;;;;;;7.22;3.28;;;;;;;;;;10544949;28;20127;-76
2022/09/25 01:37:17;;;;;;;16.27;7.40;;;;;;;;;;10567669;27;20568;-75
2022/09/25 01:42:30;;;;;;;18.25;8.25;;;;;;;;;;10565841;28;20054;-75
2022/09/25 01:47:39;;;;;;;14.65;7.05;;;;;;;;;;10570590;28;20055;-75
2022/09/25 01:52:51;;;;;;;14.23;6.70;;;;;;;;;;10547537;28;20286;-75
2022/09/25 01:57:59;;;;;;;14.50;7.55;;;;;;;;;;10565354;28;20044;-74
2022/09/25 02:03:24;;;;;;;14.60;7.22;;;;;;;;;;10551152;28;20433;-75
2022/09/25 02:08:38;;;;;;;13.40;7.10;;;;;;;;;;10568878;28;20158;-76
2022/09/25 02:13:52;;;;;;;14.88;6.93;;;;;;;;;;10568713;28;20050;-76
2022/09/25 02:24:43;;;;;;;18.52;7.93;;;;;;;;;;10560768;28;20063;-75
2022/09/25 02:29:48;;;;;;;17.85;7.50;;;;;;;;;;10566994;28;20454;-75
2022/09/25 02:35:06;;;;;;;19.73;8.80;;;;;;;;;;10549037;28;20032;-76
2022/09/25 02:40:16;;;;;;;20.58;9.02;;;;;;;;;;10562408;28;20035;-75
2022/09/25 02:45:29;;;;;;;20.23;8.95;;;;;;;;;;10547923;28;20059;-75
2022/09/25 02:50:43;;;;;;;22.38;9.30;;;;;;;;;;10567945;28;20038;-74
2022/09/25 02:55:50;;;;;;;10.80;5.32;;;;;;;;;;10550892;28;20039;-73
2022/09/25 03:00:57;;;;;;;16.88;7.57;;;;;;;;;;10567599;28;20040;-74
2022/09/25 03:06:10;;;;;;;18.35;8.75;;;;;;;;;;10566297;28;20040;-75
2022/09/25 03:11:14;;;;;;;16.55;7.97;;;;;;;;;;10545682;28;20051;-75
2022/09/25 03:16:20;;;;;;;;;;;;;;;;;;10565664;28;20147;-75
2022/09/25 03:21:28;;;;;;;14.52;6.97;;;;;;;;;;10545515;28;19919;-75
2022/09/25 03:26:32;;;;;;;17.40;7.32;;;;;;;;;;10542985;28;20370;-75
2022/09/25 03:31:36;;;;;;;15.70;6.83;;;;;;;;;;10534156;28;20047;-74
2022/09/25 03:36:46;;;;;;;14.48;6.38;;;;;;;;;;10563662;28;20419;-74
2022/09/25 03:41:50;;;;;;;15.30;7.20;;;;;;;;;;10571689;28;20388;-74
2022/09/25 03:46:55;;;;;;;15.23;7.55;;;;;;;;;;10558646;28;20066;-74
2022/09/25 03:52:04;;;;;;;15.82;7.88;;;;;;;;;;10557005;28;20038;-74
2022/09/25 03:57:11;;;;;;;16.38;8.13;;;;;;;;;;10556284;28;20508;-74
2022/09/25 04:02:16;;;;;;;21.33;9.80;;;;;;;;;;10568770;28;20043;-74
2022/09/25 04:07:23;;;;;;;18.20;9.05;;;;;;;;;;10551192;28;20571;-75
2022/09/25 04:12:29;;;;;;;19.73;8.93;;;;;;;;;;10550410;28;20047;-75
2022/09/25 04:17:38;;;;;;;21.20;9.27;;;;;;;;;;10551305;28;20077;-74
2022/09/25 04:22:47;;;;;;;18.42;9.32;;;;;;;;;;10550168;28;20043;-75
2022/09/25 04:27:54;;;;;;;23.67;9.32;;;;;;;;;;10550206;28;20517;-74
2022/09/25 04:38:21;;;;;;;22.75;10.43;;;;;;;;;;10567521;28;20047;-74
2022/09/25 04:43:25;;;;;;;23.10;10.45;;;;;;;;;;10567988;28;20047;-74
2022/09/25 04:48:29;;;;;;;24.45;10.60;;;;;;;;;;10569930;28;20109;-73
2022/09/25 04:53:38;;;;;;;24.98;10.77;;;;;;;;;;10568364;28;20067;-74
2022/09/25 04:58:49;;;;;;;22.25;10.75;;;;;;;;;;10569764;28;20089;-74
2022/09/25 05:03:52;;;;;;;20.98;9.70;;;;;;;;;;10547886;28;20063;-74
2022/09/25 05:09:02;;;;;;;20.98;9.13;;;;;;;;;;10562613;28;20047;-74
2022/09/25 05:14:08;;;;;;;17.08;8.48;;;;;;;;;;10563512;28;20108;-74
2022/09/25 05:19:13;;;;;;;15.07;7.72;;;;;;;;;;10568960;28;20059;-75
2022/09/25 05:24:20;;;;;;;15.80;8.18;;;;;;;;;;10565067;28;20035;-75
2022/09/25 05:29:25;;;;;;;17.33;7.53;;;;;;;;;;10543353;28;20078;-77
2022/09/25 05:34:31;;;;;;;20.30;9.20;;;;;;;;;;10540815;28;20104;-74
2022/09/25 05:39:39;;;;;;;17.55;8.90;;;;;;;;;;10559916;28;20075;-75
2022/09/25 05:44:43;;;;;;;17.27;8.05;;;;;;;;;;10547757;28;20048;-75
2022/09/25 05:49:50;;;;;;;12.93;6.60;;;;;;;;;;10551239;28;20054;-74
2022/09/25 05:54:56;;;;;;;16.23;6.95;;;;;;;;;;10547702;28;20060;-75
2022/09/25 06:00:02;;;;;;;12.48;6.65;;;;;;;;;;10563553;28;20067;-74
2022/09/25 06:05:07;;;;;;;11.13;6.18;;;;;;;;;;10549329;28;20139;-74
2022/09/25 06:10:15;;;;;;;15.70;7.18;;;;;;;;;;10549297;28;20040;-76
2022/09/25 06:15:22;;;;;;;16.52;8.23;;;;;;;;;;10570118;28;20509;-75
2022/09/25 06:20:30;;;;;;;15.93;8.63;;;;;;;;;;10570970;28;20048;-76
2022/09/25 06:25:38;;;;;;;16.67;8.82;;;;;;;;;;10544829;28;20043;-75
2022/09/25 06:30:44;;;;;;;14.93;8.43;;;;;;;;;;10548638;28;20042;-75
2022/09/25 06:35:52;;;;;;;15.02;7.47;;;;;;;;;;10553182;28;20043;-74
2022/09/25 06:41:01;;;;;;;14.70;7.68;;;;;;;;;;10565105;28;20056;-74
2022/09/25 06:46:05;;;;;;;16.08;7.63;;;;;;;;;;10566437;28;20131;-75
2022/09/25 06:51:10;;;;;;;12.18;7.30;;;;;;;;;;10562659;28;20051;-75
2022/09/25 06:56:18;;;;;;;13.55;6.90;;;;;;;;;;10563946;28;20136;-76
2022/09/25 07:01:28;;;;;;;14.13;7.70;;;;;;;;;;10562443;28;20100;-74
2022/09/25 07:06:39;;;;;;;14.82;7.72;;;;;;;;;;10564705;28;20434;-76
2022/09/25 07:11:55;;;;;;;12.30;7.00;;;;;;;;;;10551570;28;20044;-75
2022/09/25 07:17:05;;;;;;;11.93;6.57;;;;;;;;;;10555171;28;20051;-76
2022/09/25 07:22:21;;;;;;;49.67;22.30;;;;;;;;;;10551980;28;20043;-77
2022/09/25 07:27:33;;;;;;;12.15;6.13;;;;;;;;;;10553111;28;20127;-74
2022/09/25 07:32:38;;;;;;;10.57;6.03;;;;;;;;;;10570955;27;20055;-74
2022/09/25 07:37:47;;;;;;;8.65;5.63;;;;;;;;;;10546736;28;20438;-75
2022/09/25 07:43:06;;;;;;;8.45;4.95;;;;;;;;;;10564055;28;20113;-75
2022/09/25 07:48:10;;;;;;;12.82;5.82;;;;;;;;;;10565680;28;20109;-74
2022/09/25 07:53:15;;;;;;;8.85;6.00;;;;;;;;;;10562342;28;20052;-75
2022/09/25 07:58:22;;;;;;;8.52;5.72;;;;;;;;;;10573882;28;20044;-76
2022/09/25 08:03:29;;;;;;;8.82;5.50;;;;;;;;;;10551439;28;20190;-76
2022/09/25 08:08:33;;;;;;;7.65;5.22;;;;;;;;;;10571482;28;20676;-77
2022/09/25 08:13:41;;;;;;;9.68;5.82;;;;;;;;;;10567751;28;20035;-76
2022/09/25 08:18:45;;;;;;;11.13;6.80;;;;;;;;;;10553920;28;20038;-76
2022/09/25 08:23:58;;;;;;;11.85;6.88;;;;;;;;;;10558730;27;20037;-77
2022/09/25 08:29:10;;;;;;;12.38;6.80;;;;;;;;;;10589467;27;20047;-76
2022/09/25 08:34:18;;;;;;;14.55;7.85;;;;;;;;;;10571777;28;20075;-76
2022/09/25 08:39:43;;;;;;;15.75;9.02;;;;;;;;;;10570163;28;20051;-75
2022/09/25 08:49:00;;;;;;;15.68;8.38;;;;;;;;;;10565222;28;20031;-75
2022/09/25 08:50:25;;;;;;;14.25;8.27;;;;;;;;;;10547073;28;20071;-75
2022/09/25 09:00:53;;;;;;;12.50;7.40;;;;;;;;;;10566239;28;20042;-75
2022/09/25 09:06:00;;;;;;;12.57;7.82;;;;;;;;;;10541963;28;20046;-75
2022/09/25 09:11:07;;;;;;;12.25;7.45;;;;;;;;;;10560579;28;20496;-76
2022/09/25 09:16:21;;;;;;;12.50;7.63;;;;;;;;;;10547824;28;20063;-76
2022/09/25 09:21:28;;;;;;;14.80;7.32;;;;;;;;;;10566963;28;20134;-75
2022/09/25 09:26:37;;;;;;;14.43;7.75;;;;;;;;;;10550988;28;20102;-76
2022/09/25 09:31:51;;;;;;;14.20;7.90;;;;;;;;;;10563626;28;20089;-76
2022/09/25 09:36:59;;;;;;;16.42;9.07;;;;;;;;;;10565985;28;20046;-75
2022/09/25 09:42:08;;;;;;;13.35;8.25;;;;;;;;;;10547748;28;20036;-75
2022/09/25 09:47:26;;;;;;;12.52;7.32;;;;;;;;;;10547548;28;20035;-76
2022/09/25 09:52:34;;;;;;;11.98;7.55;;;;;;;;;;10567059;28;20104;-75
2022/09/25 09:57:44;;;;;;;16.25;8.65;;;;;;;;;;10564136;28;20082;-76
2022/09/25 10:03:00;;;;;;;11.32;7.10;;;;;;;;;;10546275;28;20080;-75
2022/09/25 10:08:08;;;;;;;11.45;7.15;;;;;;;;;;10568076;28;20373;-76
2022/09/25 10:13:18;;;;;;;12.00;8.02;;;;;;;;;;10544675;28;20119;-75
2022/09/25 10:18:26;;;;;;;10.25;7.25;;;;;;;;;;10566622;28;20043;-76
2022/09/25 10:23:38;;;;;;;10.45;6.35;;;;;;;;;;10563107;28;20058;-76
2022/09/25 10:28:42;;;;;;;12.02;8.13;;;;;;;;;;10566934;28;20077;-76
2022/09/25 10:34:00;;;;;;;10.80;7.78;;;;;;;;;;10547609;28;20043;-76
2022/09/25 10:39:08;;;;;;;7.78;6.07;;;;;;;;;;10570292;28;20043;-74
2022/09/25 10:44:36;;;;;;;10.32;6.85;;;;;;;;;;10556386;28;20463;-74
2022/09/25 10:55:18;;;;;;;9.70;5.63;;;;;;;;;;10554586;28;20105;-77
2022/09/25 11:00:24;;;;;;;10.52;6.35;;;;;;;;;;10554166;28;20078;-76
2022/09/25 11:05:39;;;;;;;9.95;6.63;;;;;;;;;;10564662;28;20053;-76
2022/09/25 11:10:48;;;;;;;9.98;6.88;;;;;;;;;;10560172;28;20514;-76
2022/09/25 11:16:09;;;;;;;10.32;6.30;;;;;;;;;;10555505;28;20040;-77
2022/09/25 11:21:35;;;;;;;10.07;6.07;;;;;;;;;;10560855;28;20040;-76
2022/09/25 11:26:53;;;;;;;8.07;5.50;;;;;;;;;;10562967;28;20123;-75
2022/09/25 11:31:58;;;;;;;6.95;4.40;;;;;;;;;;10543888;28;20489;-78
2022/09/25 11:37:10;;;;;;;7.40;5.07;;;;;;;;;;10561155;28;20502;-76
2022/09/25 11:42:24;;;;;;;7.90;5.35;;;;;;;;;;10570984;28;20070;-76
2022/09/25 11:47:39;;;;;;;8.90;5.45;;;;;;;;;;10551108;28;20090;-75
2022/09/25 11:52:52;;;;;;;7.97;5.00;;;;;;;;;;10542822;28;20404;-75
2022/09/25 11:58:08;;;;;;;7.75;4.63;;;;;;;;;;10565270;28;20050;-76
2022/09/25 12:03:29;;;;;;;8.82;5.53;;;;;;;;;;10572822;27;20050;-75
2022/09/25 12:08:43;;;;;;;9.45;5.68;;;;;;;;;;10548495;28;20044;-75
2022/09/25 12:13:53;;;;;;;10.57;5.80;;;;;;;;;;10571580;27;20046;-76
2022/09/25 12:19:08;;;;;;;10.23;6.28;;;;;;;;;;10551127;28;20058;-76
2022/09/25 12:24:19;;;;;;;10.90;7.15;;;;;;;;;;10574515;27;20071;-75
2022/09/25 12:29:37;;;;;;;10.70;6.50;;;;;;;;;;10551892;28;20035;-76
2022/09/25 12:35:09;;;;;;;10.63;6.78;;;;;;;;;;10567044;28;20056;-76
2022/09/25 12:40:22;;;;;;;10.05;6.03;;;;;;;;;;10564804;27;20057;-77
2022/09/25 12:45:33;;;;;;;9.15;6.07;;;;;;;;;;10567543;28;20074;-76
2022/09/25 12:50:45;;;;;;;9.98;6.07;;;;;;;;;;10554748;28;20064;-76
2022/09/25 12:55:52;;;;;;;10.05;6.03;;;;;;;;;;10569127;28;20452;-76
2022/09/25 13:01:12;;;;;;;10.43;6.20;;;;;;;;;;10550058;28;20131;-76
2022/09/25 13:06:26;;;;;;;11.05;6.10;;;;;;;;;;10569093;28;20036;-76
2022/09/25 13:11:31;;;;;;;;;;;;;;;;;;10568934;28;20047;-76
2022/09/25 13:16:48;;;;;;;10.55;6.22;;;;;;;;;;10566371;28;19928;-76
2022/09/25 13:22:01;;;;;;;10.20;6.03;;;;;;;;;;10571506;28;20042;-77
2022/09/25 13:27:05;;;;;;;13.35;6.25;;;;;;;;;;10568516;28;20416;-76
2022/09/25 13:32:17;;;;;;;13.30;6.75;;;;;;;;;;10566551;28;20040;-76
2022/09/25 13:37:26;;;;;;;10.98;6.10;;;;;;;;;;10563942;27;20048;-77
2022/09/25 13:42:36;;;;;;;12.98;6.82;;;;;;;;;;10551440;28;20062;-76
2022/09/25 13:47:51;;;;;;;14.52;7.55;;;;;;;;;;10545785;28;20052;-77
2022/09/25 13:53:21;;;;;;;13.88;7.40;;;;;;;;;;10550089;28;20039;-76
2022/09/25 13:58:28;;;;;;;18.55;8.23;;;;;;;;;;10536395;28;20036;-75
2022/09/25 14:03:40;;;;;;;17.90;7.57;;;;;;;;;;10552327;28;20040;-76
2022/09/25 14:08:50;;;;;;;15.02;7.65;;;;;;;;;;10564419;28;20046;-76
2022/09/25 14:14:04;;;;;;;16.05;8.02;;;;;;;;;;10566553;28;20496;-76
2022/09/25 14:19:25;;;;;;;17.00;7.53;;;;;;;;;;10567464;28;20447;-75
2022/09/25 14:24:44;;;;;;;15.80;8.07;;;;;;;;;;10559713;28;20036;-75
2022/09/25 14:29:51;;;;;;;16.77;7.88;;;;;;;;;;10552317;27;20596;-76
2022/09/25 14:35:08;;;;;;;14.70;7.80;;;;;;;;;;10548559;28;20445;-77
2022/09/25 14:40:18;;;;;;;21.73;10.07;;;;;;;;;;10564261;28;20046;-76
2022/09/25 14:45:39;;;;;;;22.42;11.00;;;;;;;;;;10568190;28;20243;-76
2022/09/25 14:50:53;;;;;;;13.85;7.70;;;;;;;;;;10562965;28;20385;-77
2022/09/25 14:56:01;;;;;;;14.43;8.02;;;;;;;;;;10548476;28;20032;-76
2022/09/25 15:01:13;;;;;;;12.82;6.60;;;;;;;;;;10564673;28;20117;-76
2022/09/25 15:06:34;;;;;;;12.75;6.68;;;;;;;;;;10535314;28;20073;-76
2022/09/25 15:11:43;;;;;;;12.48;6.88;;;;;;;;;;10568057;28;20054;-77
2022/09/25 15:22:23;;;;;;;13.90;7.05;;;;;;;;;;10550462;28;20173;-76
2022/09/25 15:27:33;;;;;;;12.98;7.15;;;;;;;;;;10559573;28;20046;-76
2022/09/25 15:32:40;;;;;;;12.23;6.28;;;;;;;;;;10564305;28;20132;-76
2022/09/25 15:37:50;;;;;;;14.70;7.68;;;;;;;;;;10572363;28;20055;-76
2022/09/25 15:43:11;;;;;;;12.55;6.72;;;;;;;;;;10555369;28;20040;-76
2022/09/25 15:48:31;;;;;;;14.88;6.90;;;;;;;;;;10566982;28;20738;-75
2022/09/25 15:53:49;;;;;;;16.35;7.45;;;;;;;;;;10574444;28;20097;-75
2022/09/25 15:58:57;;;;;;;14.13;7.40;;;;;;;;;;10571978;28;20048;-75
2022/09/25 16:09:52;;;;;;;13.50;6.72;;;;;;;;;;10571995;28;20112;-75
2022/09/25 16:14:58;;;;;;;12.18;6.63;;;;;;;;;;10563255;28;20044;-75
2022/09/25 16:20:08;;;;;;;14.05;7.18;;;;;;;;;;10571235;28;20495;-76
2022/09/25 16:25:20;;;;;;;14.85;8.23;;;;;;;;;;10566395;28;20039;-75
2022/09/25 16:30:33;;;;;;;17.70;9.05;;;;;;;;;;10556462;28;20069;-76
2022/09/25 16:35:38;;;;;;;13.65;6.97;;;;;;;;;;10567106;28;20054;-75
2022/09/25 16:41:20;;;;;;;11.90;6.03;;;;;;;;;;10569213;27;20043;-76
2022/09/25 16:46:25;;;;;;;23.52;11.20;;;;;;;;;;10574725;28;20046;-75
2022/09/25 16:51:31;;;;;;;19.83;10.05;;;;;;;;;;10569400;28;20035;-75
2022/09/25 16:56:49;;;;;;;17.58;8.75;;;;;;;;;;10566996;27;20290;-75
2022/09/25 17:02:01;;;;;;;14.13;7.55;;;;;;;;;;10568053;28;20039;-77
2022/09/25 17:07:06;;;;;;;10.32;5.32;;;;;;;;;;10572493;27;20116;-73
2022/09/25 17:12:25;;;;;;;16.05;7.22;;;;;;;;;;10545449;28;20154;-75
2022/09/25 17:17:32;;;;;;;35.38;15.50;;;;;;;;;;10551770;28;20049;-76
2022/09/25 17:22:38;;;;;;;16.27;8.10;;;;;;;;;;10552294;27;20075;-75
2022/09/25 17:27:44;;;;;;;16.67;8.15;;;;;;;;;;10566206;28;20111;-77
2022/09/25 17:32:51;;;;;;;19.75;8.10;;;;;;;;;;10565852;27;20120;-77
2022/09/25 17:38:03;;;;;;;17.48;8.02;;;;;;;;;;10562575;28;20051;-76
2022/09/25 17:43:06;;;;;;;18.17;8.93;;;;;;;;;;10556018;27;20492;-77
2022/09/25 17:48:12;;;;;;;19.60;9.43;;;;;;;;;;10538759;28;20043;-76
2022/09/25 17:53:18;;;;;;;21.05;9.48;;;;;;;;;;10565931;28;20583;-76
2022/09/25 17:58:24;;;;;;;15.10;7.03;;;;;;;;;;10554671;28;20062;-76
2022/09/25 18:03:31;;;;;;;21.27;9.85;;;;;;;;;;10570809;28;20135;-75
2022/09/25 18:08:38;;;;;;;21.92;9.93;;;;;;;;;;10553810;28;20535;-77
2022/09/25 18:13:43;;;;;;;17.02;7.53;;;;;;;;;;10570165;28;20036;-75
2022/09/25 18:24:09;;;;;;;17.50;8.80;;;;;;;;;;10561997;28;20408;-77
2022/09/25 18:29:16;;;;;;;15.23;7.40;;;;;;;;;;10548878;28;20087;-76
2022/09/25 18:34:30;;;;;;;21.55;9.10;;;;;;;;;;10560569;27;20108;-76
2022/09/25 18:39:37;;;;;;;18.30;8.50;;;;;;;;;;10543029;28;20054;-76
2022/09/25 18:44:46;;;;;;;16.60;7.60;;;;;;;;;;10564531;28;20063;-76
2022/09/25 18:49:51;;;;;;;18.35;8.38;;;;;;;;;;10529215;28;20043;-76
2022/09/25 18:55:09;;;;;;;13.40;6.22;;;;;;;;;;10547930;28;20059;-76
2022/09/25 19:00:13;;;;;;;25.05;11.65;;;;;;;;;;10545121;28;20112;-76
2022/09/25 19:05:19;;;;;;;15.27;6.25;;;;;;;;;;10534321;28;20123;-76
2022/09/25 19:10:23;;;;;;;15.00;6.72;;;;;;;;;;10544986;28;20454;-76
2022/09/25 19:15:29;;;;;;;17.08;8.98;;;;;;;;;;10550803;28;20035;-76
2022/09/25 19:20:45;;;;;;;14.30;6.50;;;;;;;;;;10563904;28;20421;-76
2022/09/25 19:26:02;;;;;;;17.23;8.48;;;;;;;;;;10548028;28;20036;-76
2022/09/25 19:31:12;;;;;;;22.40;9.38;;;;;;;;;;10565570;28;20058;-77
2022/09/25 19:36:19;;;;;;;15.60;8.25;;;;;;;;;;10543965;28;20070;-75
2022/09/25 19:41:25;;;;;;;18.77;8.02;;;;;;;;;;10560379;28;20501;-75
2022/09/25 19:46:30;;;;;;;15.57;6.38;;;;;;;;;;10559896;28;20524;-76
2022/09/25 19:51:41;;;;;;;17.58;8.52;;;;;;;;;;10543088;28;20412;-75
2022/09/25 19:56:45;;;;;;;6.97;3.75;;;;;;;;;;10560531;28;20071;-75
2022/09/25 20:01:52;;;;;;;15.25;7.43;;;;;;;;;;10561937;28;20059;-74
2022/09/25 20:07:01;;;;;;;15.50;6.65;;;;;;;;;;10564121;28;20046;-78
2022/09/25 20:12:05;;;;;;;5.55;3.28;;;;;;;;;;10565678;28;20039;-78
2022/09/25 20:17:11;;;;;;;13.10;7.03;;;;;;;;;;10550629;28;20066;-77
2022/09/25 20:22:24;;;;;;;9.37;4.80;;;;;;;;;;10557312;28;20043;-77
2022/09/25 20:27:28;;;;;;;6.40;4.10;;;;;;;;;;10571194;28;20048;-78
2022/09/25 20:32:34;;;;;;;10.45;5.45;;;;;;;;;;10557770;28;20050;-77
2022/09/25 20:37:39;;;;;;;7.78;3.83;;;;;;;;;;10554110;28;20042;-78
2022/09/25 20:42:51;;;;;;;7.63;4.03;;;;;;;;;;10584609;28;20908;-77
2022/09/25 20:48:06;;;;;;;8.88;4.45;;;;;;;;;;10564156;27;20036;-77
2022/09/25 20:53:20;;;;;;;6.45;3.90;;;;;;;;;;10550126;28;20532;-73
2022/09/25 20:58:23;;;;;;;8.48;4.05;;;;;;;;;;10550703;27;20035;-74
2022/09/25 21:03:30;;;;;;;10.95;4.25;;;;;;;;;;10570669;28;20198;-77
2022/09/25 21:08:43;;;;;;;5.07;2.88;;;;;;;;;;10532214;28;20066;-74
2022/09/25 21:13:51;;;;;;;4.07;2.67;;;;;;;;;;10569103;28;20044;-73
2022/09/25 21:18:57;;;;;;;9.73;3.75;;;;;;;;;;10549749;28;20039;-75
2022/09/25 21:24:02;;;;;;;4.53;2.35;;;;;;;;;;10569806;28;20496;-74
2022/09/25 21:29:08;;;;;;;8.05;3.78;;;;;;;;;;10564365;28;20135;-73
2022/09/25 21:34:17;;;;;;;5.45;3.17;;;;;;;;;;10559252;28;20413;-74
2022/09/25 21:39:22;;;;;;;8.07;4.00;;;;;;;;;;10566960;28;20035;-74
2022/09/25 21:44:26;;;;;;;5.10;3.30;;;;;;;;;;10530903;28;20134;-75
2022/09/25 21:49:39;;;;;;;3.47;2.05;;;;;;;;;;10549253;28;20418;-74
2022/09/25 21:54:46;;;;;;;6.30;3.20;;;;;;;;;;10562257;28;20044;-74
2022/09/25 21:59:51;;;;;;;3.72;1.95;;;;;;;;;;10543866;28;20148;-74
2022/09/25 22:04:55;;;;;;;4.75;2.80;;;;;;;;;;10567846;28;20039;-76
2022/09/25 22:10:00;;;;;;;3.17;1.75;;;;;;;;;;10547632;28;20131;-74
2022/09/25 22:15:08;;;;;;;5.20;2.78;;;;;;;;;;10562670;28;20039;-74
2022/09/25 22:20:12;;;;;;;5.60;2.80;;;;;;;;;;10553112;28;20054;-74
2022/09/25 22:25:19;;;;;;;6.03;3.42;;;;;;;;;;10536373;27;20062;-73
2022/09/25 22:30:27;;;;;;;6.38;3.25;;;;;;;;;;10569211;28;20044;-74
2022/09/25 22:35:33;;;;;;;5.35;2.92;;;;;;;;;;10545992;28;20043;-73
2022/09/25 22:40:38;;;;;;;1.27;0.93;;;;;;;;;;10548160;28;20063;-74
2022/09/25 22:45:49;;;;;;;5.72;2.92;;;;;;;;;;10540188;28;20499;-74
2022/09/25 22:50:54;;;;;;;5.15;2.30;;;;;;;;;;10545217;28;20039;-73
2022/09/25 22:56:09;;;;;;;5.13;2.92;;;;;;;;;;10563064;27;20038;-74
2022/09/25 23:01:15;;;;;;;4.05;2.28;;;;;;;;;;10564007;28;20126;-74
2022/09/25 23:06:31;;;;;;;4.75;2.80;;;;;;;;;;10542784;28;20074;-74
2022/09/25 23:11:37;;;;;;;5.43;1.95;;;;;;;;;;10547260;28;20045;-74
2022/09/25 23:16:44;;;;;;;3.25;2.17;;;;;;;;;;10566951;28;20445;-74
2022/09/25 23:21:48;;;;;;;2.15;1.42;;;;;;;;;;10548049;28;20043;-73
2022/09/25 23:26:58;;;;;;;2.30;1.42;;;;;;;;;;10563670;28;20055;-74
2022/09/25 23:32:06;;;;;;;3.75;2.15;;;;;;;;;;10547864;28;20036;-74
2022/09/25 23:37:13;;;;;;;7.60;2.15;;;;;;;;;;10533686;28;20040;-74
2022/09/25 23:42:20;;;;;;;4.05;1.92;;;;;;;;;;10562154;28;20031;-74
2022/09/25 23:47:27;;;;;;;1.15;0.88;;;;;;;;;;10576756;28;20059;-73
2022/09/25 23:52:35;;;;;;;4.35;2.30;;;;;;;;;;10551365;28;20036;-74
2022/09/25 23:57:43;;;;;;;5.45;2.80;;;;;;;;;;10546207;28;20039;-74
